Aérodrome :
LOGIN :

S'inscrire | Disclaimer

   EN    FR    IT 

 










Légende :    VFR   VFR Marginal   IFR   IFR Intensif   IFR Très Intensif
Visi : 
Plafond : 
>= 8 km
>= 3000ft
5 à 8 km
1000 à 3000 ft
1500m à 5 km
500 à 1000 ft
800 à 1500m
200 à 500 ft
< 800m
< 200 ft
Symboles :   Orages  Brouillard  Fortes neiges  Fortes précipitations  Vent > 20 kt
SIGMETs :   Divers  Orages  Givrage  Turbulence  Onde Orograph.  Cendres Volcan.






- Altitude de l'aérodrome : 821 ft
- Code IATA : LYS


LFLL - Lyon St Exupéry / Satolas

DERNIER METAR :
  • 140130Z 13010KT CAVOK 03/01 Q1001 NOSIG

METARs EXPIRÉS :
  • 140100Z 14009KT CAVOK 03/01 Q1002 NOSIG
  • 140030Z 14007KT CAVOK 03/01 Q1003 NOSIG
  • 140000Z 15008KT CAVOK 03/01 Q1003 NOSIG
  • 132330Z 15008KT CAVOK 03/01 Q1004 NOSIG
  • 132300Z 15009KT CAVOK 02/01 Q1004 NOSIG

TAF TAF LFLL
Valide du 14 à 00h jusqu'au 15 à 06h UTC


132300Z 1400/1506 15008KT CAVOK
TEMPO 1406/1408 18015G30KT
BECMG 1404/1406 7000 RA BKN020 OVC040
TEMPO 1412/1418 3000 SNRA BKN012 OVC020
PROB40
TEMPO 1412/1418 0800 SN BKN005
BECMG 1418/1420 30005KT SNRA BKN008
TEMPO 1418/1421 1200 SN BKN004
TEMPO 1500/1506 3000 -SN BKN004



MET'MAP, la Météo Aéronautique d'un coup d'oeil ! - Copyright ORBIFLY Décembre 2007 - Disclaimer

ORBIFLY MET'MAP TEAM :

Programmation & Développement : Alexandra Zaïnal
Conception & Développement : Baudouin d'Aumeries
Co-Programmation & Développement : Marc-Olivier Méhu
Soutien technique & logistique : Manuel Goepfert

Contact : metmap@orbifly.com




SOURCES & CREDITS :

   NOAA